createdAt,value
2018-09-11T00:09:57.336Z,99.90
2018-09-11T00:15:01.427Z,99.90
2018-09-11T00:20:05.575Z,99.90
2018-09-11T00:25:10.162Z,99.90
2018-09-11T00:30:14.320Z,99.90
2018-09-11T00:35:18.365Z,99.90
2018-09-11T00:45:26.359Z,99.90
2018-09-11T00:50:30.418Z,99.90
2018-09-11T00:55:34.486Z,99.90
2018-09-11T01:05:42.355Z,99.90
2018-09-11T01:10:46.511Z,99.90
2018-09-11T01:15:50.559Z,99.90
2018-09-11T01:20:54.734Z,99.90
2018-09-11T01:25:58.902Z,99.90
2018-09-11T01:31:02.945Z,99.90
2018-09-11T01:36:07.077Z,99.90
2018-09-11T01:41:11.137Z,99.90
2018-09-11T01:46:16.684Z,99.90
2018-09-11T01:51:20.794Z,99.90
2018-09-11T01:56:24.939Z,99.90
2018-09-11T02:01:29.001Z,99.90
2018-09-11T02:11:36.910Z,99.90
2018-09-11T02:16:40.954Z,99.90
2018-09-11T02:21:45.090Z,99.90
2018-09-11T02:26:49.103Z,99.90
2018-09-11T02:36:56.958Z,99.90
2018-09-11T02:42:00.993Z,99.90
2018-09-11T02:52:08.845Z,99.90
2018-09-11T03:02:16.922Z,99.90
2018-09-11T03:07:21.024Z,99.90
2018-09-11T03:12:25.047Z,99.90
2018-09-11T03:22:32.947Z,99.90
2018-09-11T03:27:37.021Z,99.90
2018-09-11T03:32:41.123Z,99.90
2018-09-11T03:47:53.275Z,99.90
2018-09-11T03:58:01.258Z,99.90
2018-09-11T04:03:05.301Z,99.90
2018-09-11T04:13:13.256Z,99.90
2018-09-11T04:18:17.418Z,99.90
2018-09-11T04:23:21.465Z,99.90
2018-09-11T04:28:25.542Z,99.90
2018-09-11T04:33:29.616Z,99.90
2018-09-11T04:38:33.677Z,99.90
2018-09-11T04:48:43.770Z,99.90
2018-09-11T04:53:47.827Z,99.90
2018-09-11T04:58:52.004Z,99.90
2018-09-11T05:03:56.070Z,99.90
2018-09-11T05:09:00.191Z,99.90
2018-09-11T05:14:04.328Z,99.90
2018-09-11T05:19:08.466Z,99.90
2018-09-11T05:24:12.557Z,99.90
2018-09-11T05:29:16.886Z,99.90
2018-09-11T05:34:21.647Z,99.90
2018-09-11T05:44:29.618Z,99.90
2018-09-11T05:49:33.693Z,99.90
2018-09-11T05:59:41.638Z,99.90
2018-09-11T06:04:46.661Z,99.90
2018-09-11T06:09:50.782Z,99.90
2018-09-11T06:14:54.846Z,99.90
2018-09-11T06:19:58.929Z,99.90
2018-09-11T06:25:02.981Z,99.90
2018-09-11T06:30:07.073Z,99.90
2018-09-11T06:40:15.064Z,99.90
2018-09-11T06:45:19.148Z,99.90
2018-09-11T06:50:23.193Z,99.90
2018-09-11T06:55:27.257Z,99.80
2018-09-11T07:00:31.643Z,98.80
2018-09-11T07:05:35.808Z,97.20
2018-09-11T07:10:39.875Z,96.70
2018-09-11T07:15:43.989Z,95.30
2018-09-11T07:20:48.706Z,93.60
2018-09-11T07:25:52.844Z,91.80
2018-09-11T07:36:00.841Z,90.40
2018-09-11T07:41:04.901Z,90.50
2018-09-11T07:46:08.994Z,90.30
2018-09-11T07:51:13.064Z,90.00
2018-09-11T07:56:17.106Z,90.50
2018-09-11T08:01:21.230Z,90.40
2018-09-11T08:06:25.268Z,90.40
2018-09-11T08:11:29.305Z,91.40
2018-09-11T08:16:33.446Z,91.40
2018-09-11T08:21:37.393Z,91.00
2018-09-11T08:52:00.640Z,84.70
2018-09-11T08:57:04.702Z,85.20
2018-09-11T09:02:08.774Z,84.30
2018-09-11T09:12:16.642Z,81.10
2018-09-11T09:17:20.762Z,80.50
2018-09-11T09:22:24.817Z,80.60
2018-09-11T09:27:28.931Z,79.80
2018-09-11T09:32:33.733Z,77.20
2018-09-11T09:37:37.884Z,77.70
2018-09-11T09:42:41.993Z,77.60
2018-09-11T09:47:46.062Z,77.30
2018-09-11T09:52:50.174Z,76.00
2018-09-11T09:57:54.312Z,77.80
2018-09-11T10:02:58.450Z,77.00
2018-09-11T10:08:02.512Z,75.40
2018-09-11T10:13:06.678Z,75.30
2018-09-11T10:23:14.637Z,74.50
2018-09-11T10:28:18.697Z,73.90
2018-09-11T10:33:22.846Z,74.40
2018-09-11T10:38:26.930Z,72.60
2018-09-11T10:43:31.062Z,73.10
2018-09-11T10:53:38.947Z,71.80
2018-09-11T10:58:42.974Z,72.90
2018-09-11T11:03:47.091Z,72.30
2018-09-11T11:08:51.182Z,71.90
2018-09-11T11:18:59.092Z,70.00
2018-09-11T11:24:03.138Z,71.50
2018-09-11T11:34:11.024Z,71.30
2018-09-11T11:49:22.834Z,71.30
2018-09-11T11:59:30.756Z,71.40
2018-09-11T12:04:34.854Z,72.30
2018-09-11T12:19:46.649Z,70.70
2018-09-11T12:24:50.734Z,71.50
2018-09-11T12:29:54.793Z,71.90
2018-09-11T12:34:58.894Z,70.20
2018-09-11T12:40:02.949Z,70.40
2018-09-11T12:45:07.181Z,68.20
2018-09-11T12:55:15.070Z,68.10
2018-09-11T13:05:22.905Z,64.60
2018-09-11T13:10:26.951Z,62.80
2018-09-11T13:15:31.041Z,61.00
2018-09-11T13:20:35.075Z,59.90
2018-09-11T13:25:39.117Z,59.00
2018-09-11T13:30:43.153Z,57.60
2018-09-11T13:35:47.186Z,56.60
2018-09-11T13:40:51.273Z,54.30
2018-09-11T13:45:55.362Z,54.80
2018-09-11T13:50:59.396Z,55.20
2018-09-11T14:01:08.142Z,54.40
2018-09-11T14:06:12.180Z,54.80
2018-09-11T14:11:16.375Z,54.60
2018-09-11T14:16:20.407Z,54.60
2018-09-11T14:21:24.495Z,54.00
2018-09-11T14:26:28.550Z,55.00
2018-09-11T14:31:32.606Z,54.60
2018-09-11T14:36:36.753Z,55.70
2018-09-11T14:41:40.845Z,55.10
2018-09-11T14:46:44.961Z,55.30
2018-09-11T14:51:49.345Z,55.20
2018-09-11T15:01:57.221Z,54.50
2018-09-11T15:07:01.392Z,54.50
2018-09-11T15:17:09.309Z,54.50
2018-09-11T15:22:13.439Z,54.00
2018-09-11T15:37:25.160Z,53.20
2018-09-11T15:42:29.281Z,52.90
2018-09-11T15:47:33.330Z,52.20
2018-09-11T16:02:45.106Z,54.70
2018-09-11T16:12:52.990Z,54.40
2018-09-11T16:23:00.833Z,55.50
2018-09-11T16:28:05.013Z,55.20
2018-09-11T16:33:09.102Z,55.20
2018-09-11T16:38:13.158Z,56.20
2018-09-11T16:53:24.946Z,56.60
2018-09-11T16:58:29.028Z,56.90
2018-09-11T17:28:52.211Z,60.00
2018-09-11T17:39:00.116Z,61.40
2018-09-11T17:44:04.302Z,62.80
2018-09-11T17:59:16.159Z,64.00
2018-09-11T18:04:20.206Z,65.80
2018-09-11T18:09:24.261Z,68.20
2018-09-11T18:14:28.321Z,70.00
2018-09-11T18:19:32.409Z,71.90
2018-09-11T18:24:36.554Z,74.30
2018-09-11T18:34:44.829Z,77.60
2018-09-11T18:39:48.946Z,78.60
2018-09-11T18:44:53.087Z,79.80
2018-09-11T19:00:04.895Z,81.40
2018-09-11T19:10:12.786Z,84.00
2018-09-11T19:25:24.617Z,86.00
2018-09-11T19:30:28.738Z,87.40
2018-09-11T19:35:32.830Z,88.50
2018-09-11T19:40:37.006Z,89.60
2018-09-11T19:45:41.163Z,89.90
2018-09-11T20:05:57.354Z,91.00
2018-09-11T20:11:01.486Z,91.50
2018-09-11T20:16:05.601Z,91.60
2018-09-11T20:21:09.694Z,92.10
2018-09-11T20:26:13.803Z,92.50
2018-09-11T20:31:17.871Z,92.70
2018-09-11T20:36:21.993Z,92.90
2018-09-11T20:41:26.088Z,93.10
2018-09-11T20:51:34.053Z,93.10
2018-09-11T21:01:41.943Z,92.60
2018-09-11T21:16:54.630Z,92.20
2018-09-11T21:21:58.690Z,92.10
2018-09-11T21:27:02.730Z,91.90
2018-09-11T21:32:07.159Z,91.70
2018-09-11T21:42:16.310Z,91.60
2018-09-11T21:47:20.357Z,91.60
2018-09-11T21:52:24.388Z,91.60
2018-09-11T22:07:36.137Z,91.80
2018-09-11T22:12:40.623Z,91.90
2018-09-11T22:17:44.666Z,91.90
2018-09-11T22:22:48.693Z,92.00
2018-09-11T22:32:56.618Z,92.10
2018-09-11T22:38:00.790Z,92.30
2018-09-11T22:48:08.942Z,92.50
2018-09-11T22:53:12.986Z,92.60
2018-09-11T22:58:17.861Z,92.70
2018-09-11T23:03:21.902Z,92.80
2018-09-11T23:18:33.570Z,93.60
2018-09-11T23:23:37.665Z,94.00
2018-09-11T23:28:41.693Z,94.50
2018-09-11T23:33:46.734Z,94.80
2018-09-11T23:38:50.791Z,95.20
2018-09-11T23:43:54.861Z,95.60
2018-09-11T23:48:58.939Z,96.00
2018-09-11T23:54:02.978Z,96.40
2018-09-11T23:59:07.078Z,96.80
